Date,TemperatureHighF,TemperatureAvgF,TemperatureLowF,DewpointHighF,DewpointAvgF,DewpointLowF,HumidityHigh,HumidityAvg,HumidityLow,PressureMaxIn,PressureMinIn,WindSpeedMaxMPH,WindSpeedAvgMPH,GustSpeedMaxMPH,PrecipitationSumIn
2013-2-26,38.4,16.5,35.5,29.0,-42.9,-99.9,76,31,65,30.34,30.18,5,-554,0,0.04
2013-2-27,34.0,13.3,29.6,32.0,-46.7,-99.9,96,38,89,30.18,29.70,8,-592,0,0.07
2013-2-28,41.5,14.2,30.9,36.0,-48.4,-99.9,97,34,75,29.70,29.62,4,-614,0,0.31
2013-3-1,32.4,11.3,28.7,27.0,-52.9,-99.9,89,32,78,29.81,29.63,6,-626,0,0.00
2013-3-2,30.4,11.0,26.2,25.0,-51.6,-99.9,93,33,77,29.82,29.78,7,-609,0,0.04
2013-3-3,28.1,10.5,21.0,24.0,-50.1,-99.9,93,35,82,29.79,29.73,5,-593,0,0.01
2013-3-4,25.3,9.1,20.0,19.0,-52.5,-99.9,91,34,76,29.94,29.74,7,-598,0,0.00
2013-3-5,35.6,12.6,23.2,29.0,-48.4,-99.9,92,33,74,30.17,29.95,6,-588,0,0.01
2013-3-6,39.5,15.1,32.3,29.0,-46.8,-99.9,85,29,58,30.25,30.16,8,-577,0,0.00
2013-3-7,32.8,13.6,28.1,24.0,-46.1,-99.9,74,31,67,30.25,30.20,7,-559,0,0.00
2013-3-8,39.0,14.6,26.6,25.0,-45.8,-99.9,83,30,57,30.37,30.19,10,-560,0,0.00
2013-3-9,48.5,17.1,21.9,24.0,-49.0,-99.9,91,20,31,30.41,30.34,5,-578,0,0.00
2013-3-10,51.6,20.7,28.5,25.0,-43.6,-99.9,76,20,29,30.38,30.16,9,-538,0,0.00
2013-3-11,51.8,20.5,37.0,32.0,-44.2,-99.9,75,21,36,30.21,29.98,9,-564,0,0.00
2013-3-12,47.6,19.5,44.7,46.0,-39.1,-99.9,95,39,90,30.00,29.74,8,-576,0,0.40
2013-3-13,38.0,14.3,33.7,30.0,-49.3,-99.9,87,29,59,29.85,29.79,4,-604,0,0.00
2013-3-14,25.0,9.8,15.0,21.0,-47.1,-99.9,86,33,64,29.96,29.75,9,-530,0,0.00
2013-3-15,31.1,11.3,13.9,24.0,-49.6,-99.9,90,27,43,29.96,29.65,6,-552,0,0.00
2013-3-16,24.2,9.8,14.2,12.0,-48.8,-99.9,84,30,54,29.97,29.77,6,-536,0,0.01
2013-3-17,21.3,8.2,12.0,11.0,-51.2,-99.9,85,28,40,30.41,29.97,12,-536,0,0.00
2013-3-18,31.2,11.2,8.7,5.0,-53.7,-99.9,72,18,28,30.52,30.20,6,-548,0,0.00
2013-3-19,28.1,10.5,26.5,27.0,-51.4,-99.9,94,36,90,30.20,29.78,12,-612,0,0.00
2013-3-20,28.7,10.1,22.3,26.0,-52.7,-99.9,91,32,77,29.77,29.71,5,-611,0,0.07
2013-3-21,33.6,12.4,19.5,16.0,-49.2,-99.9,83,26,42,29.79,29.69,8,-554,0,0.20
2013-3-22,31.6,12.5,18.3,21.0,-45.7,-99.9,88,32,58,29.80,29.70,5,-538,0,0.05
2013-3-23,31.0,13.0,24.5,26.0,-43.9,-99.9,90,36,65,29.87,29.71,12,-542,0,0.04
2013-3-24,34.7,15.6,27.8,25.0,-39.4,-99.9,88,35,63,29.94,29.85,7,-509,0,0.06
2013-3-25,40.9,16.8,22.8,27.0,-41.5,-99.9,92,31,53,29.87,29.65,6,-531,0,0.02
2013-3-26,41.5,18.0,28.8,24.0,-39.9,-99.9,80,28,43,29.86,29.67,6,-509,0,0.00
2013-3-27,41.6,18.1,31.5,30.0,-40.6,-99.9,76,30,56,29.98,29.82,5,-533,0,0.00
2013-3-28,44.4,18.5,32.6,34.0,-38.7,-99.9,96,35,61,30.11,29.96,6,-536,0,0.02
2013-3-29,42.2,18.0,36.0,35.0,-39.8,-99.9,91,35,64,30.13,30.08,6,-547,0,0.01
2013-3-30,46.1,19.2,31.9,29.0,-45.5,-99.9,82,20,27,30.16,30.11,8,-542,0,0.00
2013-3-31,51.2,20.8,28.0,24.0,-43.9,-99.9,73,19,32,30.14,29.76,10,-542,0,0.00
2013-4-1,43.8,17.8,32.3,38.0,-38.2,-99.9,95,38,48,29.80,29.55,9,-531,0,0.17
2013-4-2,27.9,10.7,19.1,17.0,-49.1,-99.9,88,30,52,29.95,29.79,11,-552,0,0.06
2013-4-3,34.7,13.1,21.8,15.0,-50.0,-99.9,63,21,31,30.24,29.93,10,-544,0,0.02
2013-4-4,48.7,18.6,25.5,22.0,-47.6,-99.9,59,16,27,30.32,29.95,12,-542,0,0.00
2013-4-5,40.4,17.9,34.2,31.0,-41.7,-99.9,83,28,41,29.99,29.84,8,-530,0,0.00
2013-4-6,35.5,13.9,19.5,8.0,-49.1,-99.9,57,18,27,30.37,30.00,10,-515,0,0.00
2013-4-7,51.3,19.1,36.8,26.0,-46.6,-99.9,50,19,35,30.34,29.86,18,-559,0,0.01
2013-4-8,50.9,17.5,36.1,33.0,-45.9,-99.9,78,27,46,30.20,29.92,7,-587,0,0.00
2013-4-9,45.8,13.3,39.8,41.0,-59.4,-99.9,94,24,77,30.09,29.87,6,-696,0,0.00
2013-4-10,45.8,14.2,40.5,43.0,-53.9,-99.9,97,30,80,30.07,29.97,2,-673,0,0.00
2013-4-11,36.0,17.2,30.8,23.0,-40.4,-99.9,71,27,44,30.27,29.97,10,-498,0,0.00
2013-4-12,30.8,10.3,28.7,28.0,-56.1,-99.9,94,31,85,30.27,29.89,10,-654,0,0.00
2013-4-13,44.3,16.9,32.7,36.0,-42.7,-99.9,94,35,67,29.96,29.85,7,-572,0,0.45
2013-4-14,40.7,17.8,34.0,35.0,-38.3,-99.9,95,38,72,30.27,29.93,13,-536,0,0.12
2013-4-15,57.3,23.1,31.2,34.0,-36.2,-99.9,90,27,40,30.42,30.26,8,-516,0,0.00
2013-4-16,55.8,14.9,51.2,47.0,-61.9,-99.9,75,17,59,30.28,29.97,14,-718,0,0.01
2013-4-17,51.3,23.2,39.1,34.0,-34.2,-99.9,73,29,44,30.41,30.11,11,-498,0,0.00
2013-4-18,57.7,23.1,34.4,38.0,-35.8,-99.9,80,28,45,30.42,29.96,12,-513,0,0.06
2013-4-19,72.5,32.0,60.0,57.0,-25.5,-99.9,77,32,50,29.98,29.48,13,-513,0,0.00
2013-4-20,46.7,19.1,38.8,35.0,-42.3,-99.9,83,26,45,30.30,29.64,16,-550,0,0.01
2013-4-21,43.0,18.9,26.2,19.0,-39.1,-99.9,68,24,31,30.76,30.30,10,-477,0,0.00
2013-4-22,53.4,23.5,27.5,24.0,-38.7,-99.9,71,19,25,30.80,30.60,12,-482,0,0.00
2013-4-23,47.8,21.8,31.5,36.0,-32.5,-99.9,81,34,56,30.60,30.21,12,-487,0,0.00
2013-4-24,74.1,30.2,41.1,45.0,-30.0,-99.9,91,26,23,30.20,29.66,10,-498,0,0.00
2013-4-25,51.2,23.3,38.9,31.0,-33.9,-99.9,70,27,35,30.35,29.65,9,-482,0,0.00
2013-4-26,51.3,24.3,37.5,37.0,-33.2,-99.9,70,27,41,30.49,30.34,10,-488,0,0.00
2013-4-27,58.8,27.4,34.5,35.0,-32.0,-99.9,92,24,22,30.50,30.34,7,-472,0,0.00
2013-4-28,69.7,31.3,41.7,34.0,-33.5,-99.9,61,17,24,30.36,30.15,8,-493,0,0.00
2013-4-29,65.5,31.5,46.9,44.0,-26.3,-99.9,68,25,35,30.22,30.15,13,-467,0,0.00
2013-4-30,69.5,32.6,52.6,48.0,-24.1,-99.9,73,29,44,30.32,30.22,7,-478,0,0.00
2013-5-1,76.6,36.9,48.1,42.0,-25.8,-99.9,60,18,23,30.47,30.32,7,-462,0,0.00
2013-5-2,78.6,33.1,54.0,46.0,-33.4,-99.9,52,17,28,30.45,30.33,8,-530,0,0.00
2013-5-3,69.4,32.9,44.6,39.0,-26.6,-99.9,67,22,29,30.51,30.36,9,-461,0,0.00
2013-5-4,75.3,35.3,48.8,46.0,-27.8,-99.9,78,20,22,30.38,30.19,7,-483,0,0.00
2013-5-5,76.2,36.1,45.7,41.0,-27.6,-99.9,65,18,22,30.27,30.13,9,-467,0,0.00
2013-5-6,77.3,36.6,48.0,43.0,-29.7,-99.9,66,16,16,30.21,30.06,8,-477,0,0.00
2013-5-7,80.3,39.4,54.6,48.0,-24.0,-99.9,64,18,18,30.14,30.04,4,-457,0,0.00
2013-5-8,75.8,35.3,54.4,58.0,-20.7,-99.9,91,31,37,30.18,30.05,10,-478,0,0.12
2013-5-9,69.6,35.6,57.8,57.0,-13.4,-99.9,92,41,55,30.04,29.88,6,-441,0,0.04
2013-5-10,70.4,31.3,57.7,59.0,-24.4,-99.9,91,36,55,30.00,29.82,5,-515,0,0.02
2013-5-11,66.7,18.0,58.1,60.0,-55.5,-99.9,93,23,74,29.83,29.62,8,-717,0,0.01
2013-5-12,57.9,28.3,46.6,47.0,-23.3,-99.9,92,36,42,29.79,29.63,7,-451,0,0.00
2013-5-13,46.2,22.2,37.3,32.0,-33.7,-99.9,65,29,50,30.09,29.76,11,-482,0,0.00
2013-5-14,53.6,26.8,36.9,29.0,-28.9,-99.9,69,25,31,30.14,30.04,8,-436,0,0.00
2013-5-15,61.4,18.8,37.2,41.0,-53.2,-99.9,75,17,34,30.07,29.61,12,-645,0,0.01
2013-5-16,69.1,30.7,51.7,46.0,-28.8,-99.9,74,25,29,29.90,29.64,19,-493,0,0.00
2013-5-17,61.9,30.6,44.3,43.0,-22.7,-99.9,92,32,43,30.26,29.91,6,-447,0,0.00
2013-5-18,69.5,33.6,45.1,48.0,-25.6,-99.9,86,24,24,30.34,30.25,5,-462,0,0.00
2013-5-19,66.1,30.0,47.7,55.0,-25.2,-99.9,91,35,51,30.31,30.13,8,-499,0,0.07
2013-5-20,59.0,3.0,56.9,56.0,-91.8,-99.9,93,5,90,30.12,30.02,3,-947,0,0.00
2013-5-21,71.1,22.6,58.3,63.0,-45.8,-99.9,97,27,69,30.05,29.86,7,-662,0,0.02
2013-5-22,77.5,31.4,52.3,68.0,-23.3,-99.9,98,41,69,29.91,29.78,7,-526,0,0.25
2013-5-23,74.8,33.1,60.3,65.0,-21.3,-99.9,98,40,64,29.82,29.72,9,-515,0,0.00
2013-5-24,49.9,0.5,49.9,49.0,-98.3,-99.9,97,1,97,30.01,29.69,0,-989,0,0.01
2013-5-25,40.6,19.2,36.3,40.0,-31.0,-99.9,98,48,96,30.03,29.93,7,-499,0,0.81
2013-5-26,45.9,25.4,37.5,41.0,-16.3,-99.9,96,54,78,30.14,29.89,8,-399,0,0.03
2013-5-27,62.8,31.1,42.8,41.0,-23.8,-99.9,85,29,38,30.22,30.10,9,-446,0,0.01
2013-5-28,70.9,35.4,43.2,48.0,-20.3,-99.9,86,27,34,30.27,30.13,7,-436,0,0.00
2013-5-29,64.0,28.0,53.0,60.0,-25.6,-99.9,97,44,87,30.13,29.97,7,-525,0,0.24
2013-5-30,81.6,42.8,62.5,67.0,-3.7,-99.9,92,43,53,30.12,30.01,5,-410,0,0.00
2013-5-31,87.1,47.1,67.9,69.0,-3.8,-99.9,80,35,44,30.09,29.90,7,-415,0,0.00
2013-6-1,86.3,44.2,69.7,67.0,-9.0,-99.9,82,34,45,29.94,29.80,10,-446,0,0.00
2013-6-2,82.3,25.8,70.1,70.0,-43.4,-99.9,89,25,58,29.85,29.66,8,-662,0,0.00
2013-6-3,65.3,38.2,59.1,59.0,-6.5,-99.9,86,44,54,29.89,29.75,4,-389,0,0.01
2013-6-4,60.5,30.6,47.7,47.0,-18.7,-99.9,78,38,53,30.15,29.89,8,-430,0,0.00
2013-6-5,65.9,31.4,45.5,44.0,-26.0,-99.9,84,27,32,30.25,30.15,5,-471,0,0.00
2013-6-6,62.6,26.5,50.5,52.0,-30.5,-99.9,92,35,60,30.23,30.12,4,-531,0,0.01
2013-6-7,49.4,0.6,49.4,48.0,-98.2,-99.9,95,1,95,30.12,29.93,0,-988,0,0.01
2013-6-8,60.1,31.7,51.3,56.0,-13.6,-99.9,99,51,85,30.07,29.81,9,-441,0,0.00
2013-6-9,70.6,38.4,56.6,58.0,-6.8,-99.9,94,45,55,30.23,30.06,8,-401,0,0.00
2013-6-10,71.3,36.0,52.3,60.0,-14.9,-99.9,93,38,43,30.24,30.00,5,-446,0,0.00
2013-6-11,53.8,3.4,53.7,53.0,-90.2,-99.9,98,6,97,30.00,29.63,0,-936,0,0.06
2013-6-12,65.1,29.7,51.9,57.0,-20.7,-99.9,99,45,71,29.89,29.65,5,-483,0,0.03
2013-6-13,65.7,34.9,49.4,57.0,-13.5,-99.9,97,42,53,29.87,29.72,5,-431,0,0.00
2013-6-14,72.5,38.0,52.7,58.0,-11.4,-99.9,96,39,49,29.87,29.73,2,-426,0,0.00
2013-6-15,70.4,36.8,52.3,48.0,-18.9,-99.9,75,27,38,29.98,29.87,10,-436,0,0.00
2013-6-16,68.0,22.0,58.5,59.0,-46.8,-99.9,95,24,57,29.94,29.71,6,-652,0,0.19
2013-6-17,68.8,34.2,61.3,60.0,-17.1,-99.9,93,41,65,29.96,29.83,5,-476,0,0.03
2013-6-18,66.7,33.2,50.3,53.0,-17.3,-99.9,95,39,48,30.02,29.93,5,-447,0,0.00
2013-6-19,66.5,35.1,46.7,48.0,-17.0,-99.9,84,32,45,30.22,30.02,5,-425,0,0.00
2013-6-20,72.7,37.9,47.4,53.0,-14.6,-99.9,90,32,35,30.30,30.21,8,-420,0,0.00
2013-6-21,78.6,41.1,52.7,59.0,-10.6,-99.9,88,33,40,30.28,30.23,7,-417,0,0.00
2013-6-22,74.9,30.6,60.2,66.0,-27.5,-99.9,93,36,70,30.23,30.13,2,-551,0,0.13
2013-6-23,80.3,26.6,65.4,72.0,-38.6,-99.9,98,32,75,30.13,29.97,2,-637,0,0.02
2013-6-24,83.3,16.4,70.8,72.0,-64.8,-99.9,88,15,64,30.01,29.89,2,-791,0,0.00
2013-6-25,84.9,31.3,70.3,71.0,-32.4,-99.9,89,29,57,29.92,29.75,7,-599,0,0.00
2013-6-26,68.3,13.6,65.5,68.0,-66.3,-99.9,98,20,97,29.85,29.75,0,-797,0,0.01
2013-6-27,81.5,43.7,63.6,71.0,-2.6,-99.9,98,45,55,29.84,29.73,6,-418,0,0.00
2013-6-28,73.8,31.0,61.3,67.0,-24.4,-99.9,97,40,75,29.73,29.44,14,-535,0,0.10
2013-6-29,77.6,39.3,60.9,67.0,-6.8,-99.9,99,48,60,29.70,29.52,8,-430,0,0.17
2013-6-30,79.6,40.0,63.0,68.0,-10.5,-99.9,96,41,62,29.96,29.70,4,-458,0,0.01
2013-7-1,70.1,34.2,64.6,67.0,-16.4,-99.9,98,47,87,30.13,29.94,2,-494,0,0.00
2013-7-2,76.3,35.5,60.7,73.0,-15.0,-99.9,99,47,82,30.16,30.09,4,-494,0,0.24
2013-7-3,80.4,39.2,65.8,74.0,-8.4,-99.9,99,50,76,30.20,30.13,4,-464,0,0.52
2013-7-4,84.3,31.2,67.8,76.0,-31.0,-99.9,99,33,64,30.21,30.10,7,-599,0,0.00
2013-7-5,84.8,32.3,70.0,74.0,-29.9,-99.9,88,31,64,30.16,30.06,5,-588,0,0.01
2013-7-6,80.9,40.4,70.4,70.0,-10.7,-99.9,93,41,58,30.09,30.02,5,-466,0,0.00
2013-7-7,80.9,42.4,67.9,71.0,-4.6,-99.9,90,44,64,30.06,29.95,5,-426,0,0.04
2013-7-8,78.9,14.1,71.7,73.0,-68.1,-99.9,92,16,76,30.07,29.96,2,-812,0,0.01
2013-7-9,81.5,41.5,65.4,73.0,-5.5,-99.9,98,47,68,30.10,30.01,5,-441,0,0.27
2013-7-10,77.4,42.6,68.8,72.0,-2.1,-99.9,92,50,80,30.02,29.75,10,-420,0,0.01
2013-7-11,75.0,34.1,64.5,66.0,-21.2,-99.9,97,37,61,30.05,29.74,5,-516,0,0.00
2013-7-12,78.6,39.1,56.7,62.0,-12.5,-99.9,95,37,51,30.24,30.05,4,-446,0,0.00
2013-7-13,78.1,40.7,60.1,67.0,-9.5,-99.9,95,40,56,30.32,30.24,8,-447,0,0.00
2013-7-14,83.2,43.3,68.2,72.0,-5.5,-99.9,94,42,64,30.34,30.24,4,-442,0,0.00
2013-7-15,86.3,43.1,70.8,72.0,-11.2,-99.9,94,34,48,30.25,30.16,5,-471,0,0.00
2013-7-16,85.9,44.5,69.8,71.0,-6.8,-99.9,88,38,54,30.23,30.18,5,-447,0,0.00
2013-7-17,87.7,42.5,71.3,75.0,-11.8,-99.9,88,36,55,30.21,29.97,5,-483,0,0.00
2013-7-18,84.3,41.0,68.1,75.0,-9.0,-99.9,97,44,64,30.04,29.93,5,-467,0,0.05
2013-7-19,88.6,44.5,75.7,74.0,-8.4,-99.9,85,37,56,29.94,29.66,8,-467,0,0.00
2013-7-20,78.0,39.4,70.4,70.0,-12.6,-99.9,92,39,48,29.85,29.64,7,-471,0,0.11
2013-7-21,74.6,39.1,56.4,61.0,-9.8,-99.9,89,39,57,30.07,29.84,5,-426,0,0.00
2013-7-22,79.0,38.9,55.0,68.0,-10.9,-99.9,93,40,63,30.07,29.88,8,-446,0,0.00
2013-7-23,73.4,32.2,64.7,70.0,-20.7,-99.9,98,45,85,29.88,29.58,5,-523,0,0.16
2013-7-24,64.3,30.5,55.3,62.0,-21.5,-99.9,95,42,72,30.09,29.60,7,-494,0,0.00
2013-7-25,70.5,32.1,45.3,57.0,-21.8,-99.9,96,36,52,30.19,30.09,5,-483,0,0.00
2013-7-26,70.0,33.4,55.4,61.0,-18.1,-99.9,92,42,71,30.16,30.05,5,-482,0,0.00
2013-7-27,78.9,35.3,55.7,64.0,-21.4,-99.9,97,33,48,30.09,29.98,5,-505,0,0.00
2013-7-28,76.0,37.2,61.4,67.0,-13.6,-99.9,95,42,68,30.01,29.93,7,-472,0,0.00
2013-7-29,75.7,39.5,61.4,65.0,-8.3,-99.9,98,44,52,30.10,29.97,5,-431,0,0.00
2013-7-30,72.5,35.1,58.2,60.0,-18.6,-99.9,91,36,60,30.15,30.10,7,-478,0,0.00
2013-7-31,76.5,36.3,59.9,62.0,-20.0,-99.9,91,32,48,30.16,30.04,6,-494,0,0.00
2013-8-1,76.7,24.8,59.9,63.0,-42.3,-99.9,90,27,59,30.04,29.84,14,-640,0,0.13
2013-8-2,74.8,37.3,61.2,65.0,-15.8,-99.9,97,36,49,29.87,29.81,7,-468,0,0.00
2013-8-3,70.0,34.7,57.1,61.0,-16.2,-99.9,97,41,61,29.87,29.76,7,-467,0,0.02
2013-8-4,67.8,28.3,58.3,59.0,-30.1,-99.9,91,35,61,29.96,29.84,14,-552,0,0.03
2013-8-5,67.2,30.7,50.5,51.0,-27.1,-99.9,87,29,41,30.10,29.96,8,-498,0,0.00
2013-8-6,72.6,36.8,51.2,59.0,-15.1,-99.9,94,36,47,30.17,30.09,6,-447,0,0.00
2013-8-7,75.7,38.2,56.9,61.0,-12.6,-99.9,88,38,54,30.18,30.03,8,-446,0,0.00
2013-8-8,78.9,39.1,67.8,74.0,-10.8,-99.9,92,43,65,30.03,29.97,9,-466,0,0.24
2013-8-9,73.8,37.4,67.9,71.0,-9.7,-99.9,98,51,91,29.98,29.79,4,-465,0,0.17
2013-8-16,72.5,45.6,66.1,59.0,3.6,-99.9,78,43,57,30.24,30.15,5,-339,0,0.00
2013-8-17,73.3,35.1,52.9,61.0,-16.8,-99.9,99,39,51,30.34,30.25,2,-468,0,0.00
2013-8-18,74.5,36.0,53.6,62.0,-16.1,-99.9,97,39,50,30.32,30.11,4,-468,0,0.00
2013-8-19,77.8,36.9,62.6,64.0,-18.2,-99.9,80,34,56,30.12,30.00,5,-488,0,0.00
2013-8-20,79.7,38.6,64.5,68.0,-15.6,-99.9,80,35,55,30.11,30.03,5,-478,0,0.00
2013-8-21,81.2,39.0,65.5,68.0,-16.1,-99.9,87,34,55,30.16,30.01,5,-489,0,0.00
2013-8-22,81.3,28.0,69.9,68.0,-40.9,-99.9,78,23,55,30.03,29.82,12,-639,0,0.00
2013-8-23,69.1,32.1,59.3,60.0,-24.4,-99.9,97,33,54,30.23,29.88,8,-509,0,0.00
2013-8-24,74.2,32.4,51.4,57.0,-26.7,-99.9,93,29,44,30.38,30.23,4,-520,0,0.00
2013-8-25,74.4,33.9,51.3,59.0,-22.1,-99.9,95,33,46,30.40,30.17,7,-494,0,0.00
2013-8-26,70.0,25.7,63.9,66.0,-37.7,-99.9,91,33,84,30.17,29.92,5,-620,0,0.00
2013-8-27,80.6,36.4,65.2,70.0,-17.7,-99.9,98,40,66,29.95,29.88,4,-510,0,0.00
2013-8-28,82.3,37.5,64.7,73.0,-13.8,-99.9,98,44,63,29.99,29.88,2,-489,0,0.01
2013-8-29,76.3,30.9,64.1,68.0,-28.1,-99.9,93,35,68,30.08,29.98,6,-561,0,0.09
2013-8-30,79.7,35.1,61.6,71.0,-20.2,-99.9,98,38,66,30.03,29.79,5,-521,0,0.01
2013-8-31,72.4,32.9,66.5,68.0,-21.0,-99.9,97,43,79,29.83,29.78,2,-526,0,0.14
2013-9-1,79.7,35.4,65.2,69.0,-20.6,-99.9,98,39,66,29.91,29.82,2,-515,0,0.00
2013-9-2,76.9,30.9,67.9,71.0,-28.0,-99.9,96,37,76,29.87,29.69,6,-572,0,0.27
2013-9-3,72.2,21.0,60.7,63.0,-50.7,-99.9,97,24,65,29.83,29.71,7,-694,0,0.00
2013-9-4,67.0,21.1,57.5,58.0,-48.9,-99.9,90,24,61,29.95,29.83,9,-672,0,0.00
2013-9-5,60.0,27.2,49.3,49.0,-31.3,-99.9,92,30,48,30.21,29.91,8,-520,0,0.00
2013-9-6,63.8,26.0,47.3,48.0,-36.8,-99.9,82,25,45,30.29,30.10,8,-557,0,0.00
2013-9-7,67.7,27.2,57.1,55.0,-35.9,-99.9,72,26,49,30.10,29.86,6,-572,0,0.00
2013-9-8,58.2,24.8,49.9,49.0,-33.0,-99.9,94,33,58,30.14,29.79,5,-536,0,0.00
2013-9-9,67.1,28.2,43.4,50.0,-31.0,-99.9,91,28,41,30.24,30.09,6,-520,0,0.00
2013-9-10,71.9,15.5,59.1,69.0,-62.1,-99.9,95,21,89,30.11,30.00,8,-770,0,0.02
2013-9-11,86.2,31.0,74.8,75.0,-34.9,-99.9,85,27,61,30.05,29.91,8,-620,0,0.00
2013-9-12,74.2,23.8,67.6,70.0,-44.2,-99.9,91,29,81,29.92,29.64,8,-666,0,0.04
2013-9-13,58.0,17.1,53.6,58.0,-52.6,-99.9,98,29,95,29.89,29.64,1,-694,0,0.04
2013-9-14,57.5,22.1,49.4,50.0,-37.4,-99.9,95,36,74,30.13,29.87,9,-578,0,0.00
2013-9-15,64.0,27.9,45.8,54.0,-27.8,-99.9,94,36,56,30.18,30.05,7,-515,0,0.00
2013-9-16,51.4,11.3,47.6,50.0,-67.7,-99.9,93,17,61,30.38,30.05,6,-770,0,0.00
2013-9-17,60.7,23.5,39.8,47.0,-38.5,-99.9,92,28,53,30.53,30.36,6,-568,0,0.00
2013-9-18,68.3,25.5,43.9,53.0,-38.7,-99.9,97,26,42,30.36,30.16,8,-584,0,0.00
2013-9-19,72.4,26.1,49.4,57.0,-39.4,-99.9,98,26,42,30.18,30.07,4,-601,0,0.00
2013-9-20,77.1,28.7,53.8,60.0,-36.3,-99.9,95,26,47,30.12,29.93,5,-593,0,0.00
2013-9-21,71.3,29.7,61.0,59.0,-31.4,-99.9,77,29,53,29.94,29.59,15,-556,0,0.00
2013-9-22,56.8,1.2,56.8,55.0,-96.6,-99.9,94,2,94,29.91,29.58,1,-978,0,0.00
2013-9-23,46.9,18.5,41.3,41.0,-41.9,-99.9,92,35,78,30.10,29.91,5,-584,0,0.00
2013-9-24,56.7,21.1,43.1,45.0,-40.4,-99.9,86,31,60,30.09,29.97,11,-580,0,0.00
2013-9-25,60.4,21.7,50.8,50.0,-42.6,-99.9,84,29,66,30.06,29.98,6,-614,0,0.00
2013-9-26,59.2,23.9,43.8,51.0,-34.4,-99.9,97,36,70,30.23,30.06,2,-557,0,0.00
2013-9-27,64.4,23.6,51.4,54.0,-38.7,-99.9,92,32,65,30.34,30.22,4,-595,0,0.00
2013-9-28,68.8,24.6,50.3,58.0,-40.0,-99.9,97,28,51,30.41,30.28,4,-610,0,0.36
2013-9-29,70.5,24.9,48.9,58.0,-41.3,-99.9,98,26,45,30.28,30.10,7,-614,0,0.00
2013-9-30,70.0,25.8,48.6,57.0,-38.5,-99.9,97,29,57,30.12,30.00,1,-589,0,0.00
2013-10-1,72.8,28.9,49.1,59.0,-30.5,-99.9,96,33,58,30.03,29.91,6,-552,0,0.00
2013-10-2,72.6,22.1,61.7,61.0,-48.6,-99.9,83,23,51,29.99,29.85,6,-673,0,0.00
2013-10-3,69.1,26.3,53.0,51.0,-38.2,-99.9,77,25,43,30.13,30.00,2,-583,0,0.02
2013-10-4,62.3,37.6,47.6,55.0,0.9,-99.9,96,55,71,30.15,30.09,2,-333,0,0.00
2013-10-5,65.0,54.5,47.9,53.0,46.4,41.0,93,75,52,30.21,30.13,5,0,0,0.01
2013-10-6,54.7,33.4,47.8,46.0,-5.3,-99.9,93,51,68,30.23,30.08,8,-342,0,0.15
2013-10-7,66.7,38.4,51.4,63.0,0.8,-99.9,96,58,81,30.08,29.60,15,-356,0,0.74
2013-10-8,55.5,37.6,44.1,48.0,5.2,-99.9,89,53,48,30.44,29.91,8,-249,0,0.00
2013-10-9,63.9,34.0,42.6,44.0,-13.4,-99.9,85,36,33,30.52,30.39,6,-374,0,0.00
2013-10-10,62.9,38.1,41.2,49.0,6.7,-99.9,88,54,52,30.39,30.25,4,-242,0,0.00
2013-10-11,71.6,41.2,48.3,47.0,-3.9,-99.9,78,36,25,30.25,30.17,4,-322,0,0.00
2013-10-12,69.6,57.1,49.0,53.0,48.1,43.0,91,73,51,30.40,30.23,11,1,0,0.00
2013-10-13,66.7,54.9,46.5,50.0,46.9,44.0,91,76,50,30.45,30.35,8,0,0,0.00
2013-10-14,52.7,31.8,46.1,52.0,-3.2,-99.9,97,63,89,30.37,30.30,4,-343,0,0.05
2013-10-15,61.4,22.7,46.8,55.0,-38.7,-99.9,99,35,78,30.34,30.15,4,-599,0,0.00
2013-10-16,62.6,39.9,55.0,53.0,1.3,-99.9,89,49,59,30.15,29.85,9,-321,0,0.01
2013-10-17,62.8,56.2,51.9,54.0,50.5,47.0,95,82,62,29.87,29.73,6,0,0,0.15
2013-10-18,55.9,36.9,48.8,50.0,6.0,-99.9,97,63,61,29.92,29.64,9,-283,0,0.97
2013-10-19,59.4,36.8,45.7,45.0,-3.4,-99.9,91,45,51,29.95,29.70,6,-326,0,0.04
2013-10-20,51.9,48.1,43.8,46.0,37.5,32.0,90,68,49,30.03,29.65,13,2,0,0.04
2013-10-21,59.2,34.6,40.6,43.0,-1.6,-99.9,88,50,52,30.11,29.92,6,-291,0,0.00
2013-10-22,52.2,24.9,38.9,46.0,-24.7,-99.9,92,43,65,29.92,29.71,13,-462,0,0.02
2013-10-23,47.4,17.6,37.2,34.0,-47.2,-99.9,84,25,49,29.81,29.67,6,-599,0,0.00
2013-10-24,40.2,10.8,33.9,35.0,-62.2,-99.9,92,23,63,29.92,29.70,11,-713,0,0.05
2013-10-25,40.6,13.6,33.2,30.0,-51.2,-99.9,87,29,62,30.18,29.92,5,-620,0,0.03
2013-10-26,42.2,13.4,35.7,34.0,-54.0,-99.9,92,27,60,30.17,29.84,8,-651,0,0.06
2013-10-27,42.8,14.4,39.0,37.0,-53.0,-99.9,90,26,58,30.06,29.79,20,-644,0,0.01
2013-10-28,41.7,10.6,37.1,36.0,-64.2,-99.9,90,20,60,30.43,30.04,9,-725,0,0.02
2013-10-29,39.6,12.2,25.7,25.0,-57.3,-99.9,87,22,43,30.52,30.40,4,-652,0,0.00
2013-10-30,40.0,13.7,32.8,33.0,-50.8,-99.9,87,30,73,30.39,30.25,4,-624,0,0.00
2013-10-31,50.9,13.0,36.2,50.0,-57.0,-99.9,97,28,86,30.28,29.68,8,-694,0,0.37
2013-11-1,63.4,33.5,51.8,58.0,-15.5,-99.9,89,39,51,29.67,29.28,15,-424,0,0.02
2013-11-2,51.6,32.0,47.5,44.0,-8.3,-99.9,88,49,70,29.90,29.62,5,-357,0,0.00
2013-11-3,33.8,11.0,25.6,21.0,-56.7,-99.9,80,23,49,30.55,29.91,5,-635,0,0.00
2013-11-4,35.0,10.2,20.6,18.0,-61.5,-99.9,82,19,44,30.76,30.56,4,-669,0,0.00
2013-11-5,46.3,28.8,30.9,35.0,-13.3,-99.9,68,39,48,30.73,30.48,10,-321,0,0.00
2013-11-6,56.4,29.6,36.8,41.0,-10.9,-99.9,83,47,55,30.47,29.90,10,-346,0,0.00
2013-11-7,49.4,10.9,39.2,47.0,-64.6,-99.9,93,23,88,29.91,29.75,6,-749,0,0.04
2013-11-8,33.7,10.6,31.1,29.0,-58.3,-99.9,89,27,75,30.15,29.86,5,-673,0,0.00
2013-11-9,36.7,12.2,30.2,24.0,-54.9,-99.9,76,24,59,30.25,30.00,7,-634,0,0.00
2013-11-10,43.2,26.0,33.0,39.0,-6.8,-99.9,95,63,82,29.99,29.74,7,-312,0,0.39
2013-11-11,38.5,33.8,29.8,33.0,29.6,26.0,100,84,74,30.16,29.88,11,2,0,0.07
2013-11-12,29.2,15.0,20.9,27.0,-24.3,-99.9,92,53,77,30.31,29.98,9,-367,0,0.00
2013-11-13,18.4,4.1,17.1,13.0,-74.1,-99.9,85,18,75,30.39,30.30,7,-768,0,0.00
2013-11-20,31.5,10.6,25.8,18.0,-58.1,-99.9,71,21,54,30.72,30.61,2,-641,0,0.01
2013-11-21,39.6,8.8,26.9,23.0,-70.7,-99.9,77,13,39,30.70,30.41,5,-754,0,0.00
2013-11-22,-200.0,0.0,200.0,-99.9,-99.9,-99.9,0,0,100,30.40,29.80,0,-999,0,0.00
2013-11-23,29.4,4.3,28.3,21.0,-82.0,-99.9,73,10,66,29.94,29.79,9,-850,0,0.00
2013-11-24,15.4,2.9,12.6,9.0,-77.4,-99.9,85,16,66,30.32,29.88,9,-790,0,0.00
2013-11-25,23.4,4.8,14.1,9.0,-75.7,-99.9,56,12,39,30.45,30.21,4,-768,0,0.02
2013-11-26,33.3,7.2,31.3,26.0,-72.3,-99.9,76,16,71,30.32,30.05,2,-778,0,0.01
2013-11-27,-200.0,0.0,200.0,-99.9,-99.9,-99.9,0,0,100,30.04,29.38,0,-999,0,0.00
2013-11-28,19.6,3.4,18.1,12.0,-80.1,-99.9,74,12,63,30.48,29.48,6,-820,0,0.00
2013-11-29,20.4,4.3,15.7,10.0,-74.5,-99.9,77,16,63,30.83,30.48,2,-768,0,0.00
2013-11-30,22.1,4.8,11.7,11.0,-73.6,-99.9,87,15,53,30.84,30.36,9,-756,0,0.00
2013-12-1,-200.0,0.0,200.0,-99.9,-99.9,-99.9,0,0,100,30.38,30.03,0,-999,0,0.00
2013-12-2,-200.0,0.0,200.0,-99.9,-99.9,-99.9,0,0,100,30.03,29.88,0,-999,0,0.00
2013-12-3,-200.0,0.0,200.0,-99.9,-99.9,-99.9,0,0,100,29.98,29.89,0,-999,0,0.00
2013-12-4,34.7,6.8,32.5,29.0,-74.2,-99.9,82,15,73,30.22,29.97,0,-797,0,0.00
2013-12-5,43.3,7.1,40.4,41.0,-76.5,-99.9,92,15,86,30.20,29.87,14,-830,0,0.00
2013-12-6,35.9,3.6,33.9,30.0,-86.4,-99.9,80,8,75,30.20,29.94,5,-894,0,0.00
2013-12-7,26.2,5.6,24.3,15.0,-75.2,-99.9,65,13,55,30.51,30.16,7,-780,0,0.00
2013-12-8,-200.0,0.0,200.0,-99.9,-99.9,-99.9,0,0,100,30.63,30.42,0,-999,0,0.00
2013-12-9,-200.0,0.0,200.0,-99.9,-99.9,-99.9,0,0,100,30.42,29.80,0,-999,0,0.00
2013-12-10,-200.0,0.0,200.0,-99.9,-99.9,-99.9,0,0,100,29.88,29.74,0,-999,0,0.00
2013-12-11,-200.0,0.0,200.0,-99.9,-99.9,-99.9,0,0,100,30.09,29.88,0,-999,0,0.00
2013-12-12,11.7,2.3,5.7,0.0,-78.1,-99.9,73,13,54,30.27,30.00,2,-778,0,0.00
2013-12-13,12.6,3.9,7.1,8.0,-63.6,-99.9,81,26,63,30.48,29.95,6,-651,0,0.00
2013-12-14,3.7,-0.2,-7.7,-5.0,-70.1,-99.9,83,24,65,30.70,30.30,5,-676,0,0.00
2013-12-15,19.8,5.4,13.9,18.0,-65.4,-99.9,91,27,89,30.28,29.62,2,-701,0,0.00
2013-12-16,10.7,2.4,5.4,4.0,-71.0,-99.9,83,21,66,30.30,29.75,6,-715,0,0.00
2013-12-17,5.2,0.0,-7.6,1.0,-75.1,-99.9,84,21,75,30.32,30.14,4,-739,0,0.00
2013-12-18,24.7,6.3,10.6,20.0,-62.2,-99.9,90,28,81,30.13,30.00,2,-673,0,0.00
2013-12-19,31.1,8.1,26.3,24.0,-65.6,-99.9,87,22,72,30.14,29.97,4,-718,0,0.00
2013-12-20,30.6,0.3,30.6,29.0,-98.5,-99.9,93,1,93,30.15,29.86,0,-988,0,0.00
2013-12-21,-200.0,0.0,200.0,-99.9,-99.9,-99.9,0,0,100,29.85,29.82,0,-999,0,0.00
2013-12-22,-200.0,0.0,200.0,-99.9,-99.9,-99.9,0,0,100,29.95,29.72,0,-999,0,0.00
2013-12-23,37.8,2.0,36.8,37.0,-92.7,-99.9,98,5,98,30.19,29.93,0,-946,0,0.00
2013-12-24,18.8,5.0,16.4,13.0,-68.5,-99.9,81,22,75,30.37,30.18,4,-718,0,0.00
2013-12-25,12.0,2.0,-0.9,3.0,-72.4,-99.9,87,20,66,30.61,30.37,4,-726,0,0.00
2013-12-26,23.1,7.1,18.3,21.0,-59.7,-99.9,92,30,86,30.48,30.18,4,-660,0,0.00